sensor_id;sensor_type;location;lat;lon;timestamp;P1;P2;P0
46591;PMS6003;32314;48.748;9.656;2023-07-24T00:00:54;9.50;9.50;7.00
46591;PMS6003;32314;48.748;9.656;2023-07-24T00:04:35;12.25;10.00;7.00
46591;PMS6003;32314;48.748;9.656;2023-07-24T00:07:44;10.25;10.25;7.25
46591;PMS6003;32314;48.748;9.656;2023-07-24T00:10:59;8.00;8.00;6.50
46591;PMS6003;32314;48.748;9.656;2023-07-24T00:14:10;11.25;11.25;8.50
46591;PMS6003;32314;48.748;9.656;2023-07-24T00:20:51;11.50;11.50;8.00
46591;PMS6003;32314;48.748;9.656;2023-07-24T00:27:08;13.00;11.50;8.00
46591;PMS6003;32314;48.748;9.656;2023-07-24T00:30:03;10.50;10.50;8.00
46591;PMS6003;32314;48.748;9.656;2023-07-24T00:36:54;11.00;11.00;7.50
46591;PMS6003;32314;48.748;9.656;2023-07-24T00:43:41;9.50;9.50;8.00
46591;PMS6003;32314;48.748;9.656;2023-07-24T00:46:33;10.50;10.50;7.25
46591;PMS6003;32314;48.748;9.656;2023-07-24T00:49:26;12.00;12.00;7.75
46591;PMS6003;32314;48.748;9.656;2023-07-24T00:52:13;10.75;10.00;8.00
46591;PMS6003;32314;48.748;9.656;2023-07-24T00:55:00;12.75;11.00;8.00
46591;PMS6003;32314;48.748;9.656;2023-07-24T00:58:07;12.00;11.00;7.75
46591;PMS6003;32314;48.748;9.656;2023-07-24T01:01:05;10.00;10.00;6.00
46591;PMS6003;32314;48.748;9.656;2023-07-24T01:03:51;7.50;7.00;3.75
46591;PMS6003;32314;48.748;9.656;2023-07-24T01:07:09;10.00;10.00;8.00
46591;PMS6003;32314;48.748;9.656;2023-07-24T01:10:15;9.00;9.00;5.75
46591;PMS6003;32314;48.748;9.656;2023-07-24T01:13:18;11.25;10.50;8.00
46591;PMS6003;32314;48.748;9.656;2023-07-24T01:16:21;5.50;5.50;4.00
46591;PMS6003;32314;48.748;9.656;2023-07-24T01:23:11;3.75;3.75;1.75
46591;PMS6003;32314;48.748;9.656;2023-07-24T01:26:17;6.50;6.00;4.00
46591;PMS6003;32314;48.748;9.656;2023-07-24T01:33:20;5.00;5.00;1.75
46591;PMS6003;32314;48.748;9.656;2023-07-24T01:36:39;7.00;4.50;3.00
46591;PMS6003;32314;48.748;9.656;2023-07-24T01:39:33;2.50;2.50;2.50
46591;PMS6003;32314;48.748;9.656;2023-07-24T01:42:43;3.50;3.50;3.00
46591;PMS6003;32314;48.748;9.656;2023-07-24T01:52:51;8.25;4.00;3.00
46591;PMS6003;32314;48.748;9.656;2023-07-24T01:55:46;5.00;5.00;3.75
46591;PMS6003;32314;48.748;9.656;2023-07-24T01:58:48;5.75;5.25;3.00
46591;PMS6003;32314;48.748;9.656;2023-07-24T02:01:54;7.25;6.00;3.50
46591;PMS6003;32314;48.748;9.656;2023-07-24T02:04:54;6.00;6.00;3.25
46591;PMS6003;32314;48.748;9.656;2023-07-24T02:11:43;4.25;3.75;3.25
46591;PMS6003;32314;48.748;9.656;2023-07-24T02:14:34;12.50;11.25;7.50
46591;PMS6003;32314;48.748;9.656;2023-07-24T02:17:56;11.50;11.50;8.50
46591;PMS6003;32314;48.748;9.656;2023-07-24T02:20:49;9.25;4.00;3.75
46591;PMS6003;32314;48.748;9.656;2023-07-24T02:23:54;11.00;11.00;7.00
46591;PMS6003;32314;48.748;9.656;2023-07-24T02:27:12;9.75;9.75;6.75
46591;PMS6003;32314;48.748;9.656;2023-07-24T02:30:23;10.25;10.25;8.00
46591;PMS6003;32314;48.748;9.656;2023-07-24T02:34:04;3.25;3.25;3.00
46591;PMS6003;32314;48.748;9.656;2023-07-24T02:37:12;9.25;6.00;3.50
46591;PMS6003;32314;48.748;9.656;2023-07-24T02:40:31;5.00;5.00;3.50
46591;PMS6003;32314;48.748;9.656;2023-07-24T02:43:56;8.00;5.50;4.00
46591;PMS6003;32314;48.748;9.656;2023-07-24T02:46:42;3.00;3.00;3.00
46591;PMS6003;32314;48.748;9.656;2023-07-24T02:49:30;10.00;10.00;7.00
46591;PMS6003;32314;48.748;9.656;2023-07-24T02:52:17;9.75;9.75;7.75
46591;PMS6003;32314;48.748;9.656;2023-07-24T02:55:06;10.50;8.25;5.00
46591;PMS6003;32314;48.748;9.656;2023-07-24T02:57:58;7.00;4.00;3.25
46591;PMS6003;32314;48.748;9.656;2023-07-24T03:01:13;10.75;3.00;3.00
46591;PMS6003;32314;48.748;9.656;2023-07-24T03:04:26;9.00;5.50;3.00
46591;PMS6003;32314;48.748;9.656;2023-07-24T03:07:38;5.25;3.00;2.50
46591;PMS6003;32314;48.748;9.656;2023-07-24T03:10:53;7.00;4.00;3.00
46591;PMS6003;32314;48.748;9.656;2023-07-24T03:13:44;3.25;3.25;3.00
46591;PMS6003;32314;48.748;9.656;2023-07-24T03:23:11;3.25;3.00;2.00
46591;PMS6003;32314;48.748;9.656;2023-07-24T03:26:04;5.00;2.25;0.00
46591;PMS6003;32314;48.748;9.656;2023-07-24T03:29:00;7.00;5.00;3.00
46591;PMS6003;32314;48.748;9.656;2023-07-24T03:32:16;5.00;3.25;3.00
46591;PMS6003;32314;48.748;9.656;2023-07-24T03:35:23;4.50;4.00;4.00
46591;PMS6003;32314;48.748;9.656;2023-07-24T03:38:38;6.75;6.25;3.50
46591;PMS6003;32314;48.748;9.656;2023-07-24T03:41:45;6.25;5.50;2.50
46591;PMS6003;32314;48.748;9.656;2023-07-24T03:45:30;8.00;6.00;3.50
46591;PMS6003;32314;48.748;9.656;2023-07-24T03:48:44;9.67;6.33;4.00
46591;PMS6003;32314;48.748;9.656;2023-07-24T03:51:56;9.50;9.50;7.00
46591;PMS6003;32314;48.748;9.656;2023-07-24T03:55:01;10.25;9.50;6.75
46591;PMS6003;32314;48.748;9.656;2023-07-24T03:58:05;16.75;12.00;7.25
46591;PMS6003;32314;48.748;9.656;2023-07-24T04:01:07;4.50;3.50;3.25
46591;PMS6003;32314;48.748;9.656;2023-07-24T04:04:10;3.25;3.25;2.50
46591;PMS6003;32314;48.748;9.656;2023-07-24T04:07:06;13.25;10.50;7.25
46591;PMS6003;32314;48.748;9.656;2023-07-24T04:09:58;7.00;7.00;5.25
46591;PMS6003;32314;48.748;9.656;2023-07-24T04:13:11;4.50;4.50;3.00
46591;PMS6003;32314;48.748;9.656;2023-07-24T04:16:32;4.00;4.00;3.00
46591;PMS6003;32314;48.748;9.656;2023-07-24T04:19:56;11.50;4.00;3.50
46591;PMS6003;32314;48.748;9.656;2023-07-24T04:22:49;4.00;4.00;4.00
46591;PMS6003;32314;48.748;9.656;2023-07-24T04:26:17;5.50;5.50;4.00
46591;PMS6003;32314;48.748;9.656;2023-07-24T04:29:28;4.00;4.00;3.00
46591;PMS6003;32314;48.748;9.656;2023-07-24T04:35:37;7.25;6.00;4.00
46591;PMS6003;32314;48.748;9.656;2023-07-24T04:38:55;6.75;5.00;3.00
46591;PMS6003;32314;48.748;9.656;2023-07-24T04:42:27;3.00;3.00;3.00
46591;PMS6003;32314;48.748;9.656;2023-07-24T04:45:19;7.00;7.00;5.25
46591;PMS6003;32314;48.748;9.656;2023-07-24T04:48:28;7.50;7.00;6.50
46591;PMS6003;32314;48.748;9.656;2023-07-24T04:51:43;9.00;7.00;3.75
46591;PMS6003;32314;48.748;9.656;2023-07-24T04:54:31;11.75;9.25;7.00
46591;PMS6003;32314;48.748;9.656;2023-07-24T04:57:24;11.75;11.75;10.00
46591;PMS6003;32314;48.748;9.656;2023-07-24T05:00:20;11.50;11.50;9.00
46591;PMS6003;32314;48.748;9.656;2023-07-24T05:03:10;14.75;12.00;8.25
46591;PMS6003;32314;48.748;9.656;2023-07-24T05:06:00;12.00;10.75;9.00
46591;PMS6003;32314;48.748;9.656;2023-07-24T05:09:05;10.00;10.00;8.50
46591;PMS6003;32314;48.748;9.656;2023-07-24T05:12:11;11.75;11.75;8.75
46591;PMS6003;32314;48.748;9.656;2023-07-24T05:14:59;13.50;13.50;10.00
46591;PMS6003;32314;48.748;9.656;2023-07-24T05:17:48;11.00;11.00;8.00
46591;PMS6003;32314;48.748;9.656;2023-07-24T05:20:52;13.25;10.75;8.75
46591;PMS6003;32314;48.748;9.656;2023-07-24T05:23:50;12.25;12.25;9.00
46591;PMS6003;32314;48.748;9.656;2023-07-24T05:26:36;11.00;11.00;8.00
46591;PMS6003;32314;48.748;9.656;2023-07-24T05:29:22;12.00;12.00;9.00
46591;PMS6003;32314;48.748;9.656;2023-07-24T05:32:07;15.75;13.00;9.00
46591;PMS6003;32314;48.748;9.656;2023-07-24T05:34:53;10.50;10.00;8.00
46591;PMS6003;32314;48.748;9.656;2023-07-24T05:37:39;15.25;11.25;8.75
46591;PMS6003;32314;48.748;9.656;2023-07-24T05:40:25;14.00;14.00;10.75
46591;PMS6003;32314;48.748;9.656;2023-07-24T05:43:12;12.50;11.00;8.50
46591;PMS6003;32314;48.748;9.656;2023-07-24T05:45:57;10.75;9.50;6.25
46591;PMS6003;32314;48.748;9.656;2023-07-24T05:48:43;14.25;13.25;9.50
46591;PMS6003;32314;48.748;9.656;2023-07-24T05:51:32;15.25;13.00;10.00
46591;PMS6003;32314;48.748;9.656;2023-07-24T05:54:18;16.75;15.00;9.50
46591;PMS6003;32314;48.748;9.656;2023-07-24T05:57:04;12.25;10.50;7.75
46591;PMS6003;32314;48.748;9.656;2023-07-24T05:59:50;13.00;13.00;9.00
46591;PMS6003;32314;48.748;9.656;2023-07-24T06:02:37;12.25;12.25;8.25
46591;PMS6003;32314;48.748;9.656;2023-07-24T06:05:23;14.25;10.75;9.00
46591;PMS6003;32314;48.748;9.656;2023-07-24T06:08:08;13.00;13.00;9.00
46591;PMS6003;32314;48.748;9.656;2023-07-24T06:10:56;10.25;10.25;8.50
46591;PMS6003;32314;48.748;9.656;2023-07-24T06:13:42;10.75;10.75;8.25
46591;PMS6003;32314;48.748;9.656;2023-07-24T06:16:28;10.25;8.25;7.00
46591;PMS6003;32314;48.748;9.656;2023-07-24T06:19:14;13.25;12.25;8.50
46591;PMS6003;32314;48.748;9.656;2023-07-24T06:22:00;11.50;11.50;9.00
46591;PMS6003;32314;48.748;9.656;2023-07-24T06:24:46;10.00;10.00;7.00
46591;PMS6003;32314;48.748;9.656;2023-07-24T06:27:32;14.00;11.25;9.00
46591;PMS6003;32314;48.748;9.656;2023-07-24T06:30:17;12.00;12.00;8.50
46591;PMS6003;32314;48.748;9.656;2023-07-24T06:33:03;7.25;7.25;6.50
46591;PMS6003;32314;48.748;9.656;2023-07-24T06:35:50;14.00;12.50;9.00
46591;PMS6003;32314;48.748;9.656;2023-07-24T06:38:36;12.75;12.75;10.00
46591;PMS6003;32314;48.748;9.656;2023-07-24T06:41:21;11.00;11.00;8.50
46591;PMS6003;32314;48.748;9.656;2023-07-24T06:44:08;11.00;11.00;8.00
46591;PMS6003;32314;48.748;9.656;2023-07-24T06:46:54;13.50;11.00;10.00
46591;PMS6003;32314;48.748;9.656;2023-07-24T06:49:40;11.50;10.75;8.00
46591;PMS6003;32314;48.748;9.656;2023-07-24T06:52:25;13.00;13.00;10.50
46591;PMS6003;32314;48.748;9.656;2023-07-24T06:55:11;13.00;13.00;9.25
46591;PMS6003;32314;48.748;9.656;2023-07-24T06:57:57;12.25;12.25;8.00
46591;PMS6003;32314;48.748;9.656;2023-07-24T07:00:42;11.75;11.75;8.00
46591;PMS6003;32314;48.748;9.656;2023-07-24T07:03:28;14.00;14.00;9.75
46591;PMS6003;32314;48.748;9.656;2023-07-24T07:06:14;10.25;10.25;7.00
46591;PMS6003;32314;48.748;9.656;2023-07-24T07:09:00;12.25;10.75;9.00
46591;PMS6003;32314;48.748;9.656;2023-07-24T07:11:46;13.50;11.50;8.00
46591;PMS6003;32314;48.748;9.656;2023-07-24T07:14:31;11.50;10.00;7.00
46591;PMS6003;32314;48.748;9.656;2023-07-24T07:17:17;13.75;11.75;8.75
46591;PMS6003;32314;48.748;9.656;2023-07-24T07:20:03;12.25;12.25;8.50
46591;PMS6003;32314;48.748;9.656;2023-07-24T07:22:49;12.75;12.75;9.75
46591;PMS6003;32314;48.748;9.656;2023-07-24T07:25:35;11.75;11.75;8.00
46591;PMS6003;32314;48.748;9.656;2023-07-24T07:28:21;11.25;10.50;8.25
46591;PMS6003;32314;48.748;9.656;2023-07-24T07:31:07;14.00;13.75;9.00
46591;PMS6003;32314;48.748;9.656;2023-07-24T07:33:52;11.25;11.25;8.00
46591;PMS6003;32314;48.748;9.656;2023-07-24T07:36:38;11.00;11.00;7.50
46591;PMS6003;32314;48.748;9.656;2023-07-24T07:39:24;12.50;12.50;8.00
46591;PMS6003;32314;48.748;9.656;2023-07-24T07:42:10;11.25;10.50;8.25
46591;PMS6003;32314;48.748;9.656;2023-07-24T07:44:55;12.00;12.00;9.00
46591;PMS6003;32314;48.748;9.656;2023-07-24T07:47:41;13.75;12.75;8.00
46591;PMS6003;32314;48.748;9.656;2023-07-24T07:50:27;8.75;8.75;5.25
46591;PMS6003;32314;48.748;9.656;2023-07-24T07:53:13;9.25;9.25;6.50
46591;PMS6003;32314;48.748;9.656;2023-07-24T07:55:59;14.00;12.00;8.50
46591;PMS6003;32314;48.748;9.656;2023-07-24T07:58:47;15.50;12.00;9.00
46591;PMS6003;32314;48.748;9.656;2023-07-24T08:01:35;12.75;12.75;9.25
46591;PMS6003;32314;48.748;9.656;2023-07-24T08:04:22;11.00;11.00;8.00
46591;PMS6003;32314;48.748;9.656;2023-07-24T08:07:07;8.75;8.75;7.50
46591;PMS6003;32314;48.748;9.656;2023-07-24T08:09:53;11.50;11.50;8.00
46591;PMS6003;32314;48.748;9.656;2023-07-24T08:12:39;9.75;9.75;7.25
46591;PMS6003;32314;48.748;9.656;2023-07-24T08:15:25;9.00;9.00;7.00
46591;PMS6003;32314;48.748;9.656;2023-07-24T08:18:16;11.00;11.00;8.50
46591;PMS6003;32314;48.748;9.656;2023-07-24T08:21:16;11.50;11.50;8.75
46591;PMS6003;32314;48.748;9.656;2023-07-24T08:24:19;12.00;12.00;9.00
46591;PMS6003;32314;48.748;9.656;2023-07-24T08:27:11;11.00;10.00;7.75
46591;PMS6003;32314;48.748;9.656;2023-07-24T08:30:06;11.75;11.75;8.00
46591;PMS6003;32314;48.748;9.656;2023-07-24T08:33:12;13.50;12.25;8.00
46591;PMS6003;32314;48.748;9.656;2023-07-24T08:36:01;12.75;12.75;9.50
46591;PMS6003;32314;48.748;9.656;2023-07-24T08:39:01;13.75;12.25;8.25
46591;PMS6003;32314;48.748;9.656;2023-07-24T08:42:13;13.50;12.25;8.25
46591;PMS6003;32314;48.748;9.656;2023-07-24T08:45:02;12.25;12.25;8.25
46591;PMS6003;32314;48.748;9.656;2023-07-24T08:48:08;12.00;11.00;9.00
46591;PMS6003;32314;48.748;9.656;2023-07-24T08:51:05;11.50;11.50;9.25
46591;PMS6003;32314;48.748;9.656;2023-07-24T08:54:30;12.50;10.25;8.75
46591;PMS6003;32314;48.748;9.656;2023-07-24T08:57:29;11.00;11.00;8.75
46591;PMS6003;32314;48.748;9.656;2023-07-24T09:00:32;11.50;11.50;9.25
46591;PMS6003;32314;48.748;9.656;2023-07-24T09:03:18;12.50;11.25;8.75
46591;PMS6003;32314;48.748;9.656;2023-07-24T09:06:04;12.00;12.00;9.00
46591;PMS6003;32314;48.748;9.656;2023-07-24T09:08:53;14.25;13.00;9.25
46591;PMS6003;32314;48.748;9.656;2023-07-24T09:11:52;12.25;10.50;7.75
46591;PMS6003;32314;48.748;9.656;2023-07-24T09:14:39;11.25;9.50;7.50
46591;PMS6003;32314;48.748;9.656;2023-07-24T09:17:24;10.25;9.75;6.50
46591;PMS6003;32314;48.748;9.656;2023-07-24T09:20:13;9.75;9.75;8.00
46591;PMS6003;32314;48.748;9.656;2023-07-24T09:22:59;12.00;11.25;7.75
46591;PMS6003;32314;48.748;9.656;2023-07-24T09:25:45;11.25;11.25;9.00
46591;PMS6003;32314;48.748;9.656;2023-07-24T09:28:31;10.75;9.25;9.00
46591;PMS6003;32314;48.748;9.656;2023-07-24T09:31:18;12.00;11.00;8.75
46591;PMS6003;32314;48.748;9.656;2023-07-24T09:34:13;13.25;12.00;8.25
46591;PMS6003;32314;48.748;9.656;2023-07-24T09:36:59;10.75;10.75;8.00
46591;PMS6003;32314;48.748;9.656;2023-07-24T09:39:46;10.00;10.00;8.50
46591;PMS6003;32314;48.748;9.656;2023-07-24T09:42:33;11.00;10.75;8.50
46591;PMS6003;32314;48.748;9.656;2023-07-24T09:45:19;12.75;11.50;9.25
46591;PMS6003;32314;48.748;9.656;2023-07-24T09:48:05;9.75;9.75;8.00
46591;PMS6003;32314;48.748;9.656;2023-07-24T09:50:56;13.25;13.25;9.00
46591;PMS6003;32314;48.748;9.656;2023-07-24T09:54:28;9.50;9.00;8.25
46591;PMS6003;32314;48.748;9.656;2023-07-24T09:56:59;11.50;11.50;9.00
46591;PMS6003;32314;48.748;9.656;2023-07-24T09:59:45;10.00;10.00;7.00
46591;PMS6003;32314;48.748;9.656;2023-07-24T10:02:35;12.25;12.25;8.50
46591;PMS6003;32314;48.748;9.656;2023-07-24T10:05:21;11.00;11.00;9.00
46591;PMS6003;32314;48.748;9.656;2023-07-24T10:08:08;12.25;11.50;8.75
46591;PMS6003;32314;48.748;9.656;2023-07-24T10:10:55;10.25;10.25;9.00
46591;PMS6003;32314;48.748;9.656;2023-07-24T10:13:41;13.25;13.25;9.00
46591;PMS6003;32314;48.748;9.656;2023-07-24T10:16:27;13.75;12.75;9.25
46591;PMS6003;32314;48.748;9.656;2023-07-24T10:19:16;12.25;12.25;10.50
46591;PMS6003;32314;48.748;9.656;2023-07-24T10:22:02;11.00;11.00;8.25
46591;PMS6003;32314;48.748;9.656;2023-07-24T10:24:48;15.00;13.00;9.50
46591;PMS6003;32314;48.748;9.656;2023-07-24T10:27:44;14.25;11.50;9.75
46591;PMS6003;32314;48.748;9.656;2023-07-24T10:30:31;12.50;11.25;9.25
46591;PMS6003;32314;48.748;9.656;2023-07-24T10:33:18;11.25;11.25;8.25
46591;PMS6003;32314;48.748;9.656;2023-07-24T10:36:06;11.25;11.25;9.25
46591;PMS6003;32314;48.748;9.656;2023-07-24T10:38:55;14.75;14.75;10.75
46591;PMS6003;32314;48.748;9.656;2023-07-24T10:41:42;14.00;14.00;11.25
46591;PMS6003;32314;48.748;9.656;2023-07-24T10:44:31;15.50;14.50;10.00
46591;PMS6003;32314;48.748;9.656;2023-07-24T10:47:19;12.75;12.75;9.50
46591;PMS6003;32314;48.748;9.656;2023-07-24T10:50:06;15.00;12.00;9.75
46591;PMS6003;32314;48.748;9.656;2023-07-24T10:52:52;14.00;11.25;10.50
46591;PMS6003;32314;48.748;9.656;2023-07-24T10:55:38;13.75;13.75;10.25
46591;PMS6003;32314;48.748;9.656;2023-07-24T10:58:52;10.00;10.00;8.75
46591;PMS6003;32314;48.748;9.656;2023-07-24T11:01:41;9.25;9.25;7.50
46591;PMS6003;32314;48.748;9.656;2023-07-24T11:04:39;9.25;9.25;7.75
46591;PMS6003;32314;48.748;9.656;2023-07-24T11:07:37;10.50;8.25;7.00
46591;PMS6003;32314;48.748;9.656;2023-07-24T11:10:23;9.75;8.00;6.50
46591;PMS6003;32314;48.748;9.656;2023-07-24T11:13:09;8.00;8.00;7.00
46591;PMS6003;32314;48.748;9.656;2023-07-24T11:15:55;11.00;9.75;7.75
46591;PMS6003;32314;48.748;9.656;2023-07-24T11:18:48;9.50;9.50;7.75
46591;PMS6003;32314;48.748;9.656;2023-07-24T11:21:42;8.00;7.75;6.50
46591;PMS6003;32314;48.748;9.656;2023-07-24T11:24:31;13.00;11.50;7.75
46591;PMS6003;32314;48.748;9.656;2023-07-24T11:27:17;7.00;7.00;6.00
46591;PMS6003;32314;48.748;9.656;2023-07-24T11:30:04;9.50;9.25;7.00
46591;PMS6003;32314;48.748;9.656;2023-07-24T11:32:50;8.25;8.25;6.75
46591;PMS6003;32314;48.748;9.656;2023-07-24T11:35:37;9.00;9.00;7.75
46591;PMS6003;32314;48.748;9.656;2023-07-24T11:38:27;13.50;11.75;9.75
46591;PMS6003;32314;48.748;9.656;2023-07-24T11:41:16;13.25;10.75;8.00
46591;PMS6003;32314;48.748;9.656;2023-07-24T11:44:08;9.50;9.50;8.50
46591;PMS6003;32314;48.748;9.656;2023-07-24T11:47:31;11.00;10.75;8.50
46591;PMS6003;32314;48.748;9.656;2023-07-24T11:50:18;12.00;10.50;9.00
46591;PMS6003;32314;48.748;9.656;2023-07-24T11:53:04;10.75;10.75;9.00
46591;PMS6003;32314;48.748;9.656;2023-07-24T11:55:51;14.50;14.00;10.00
46591;PMS6003;32314;48.748;9.656;2023-07-24T11:58:38;12.75;11.50;8.50
46591;PMS6003;32314;48.748;9.656;2023-07-24T12:01:26;9.75;9.75;7.75
46591;PMS6003;32314;48.748;9.656;2023-07-24T12:04:17;13.25;11.75;9.25
46591;PMS6003;32314;48.748;9.656;2023-07-24T12:07:08;10.50;10.50;9.00
46591;PMS6003;32314;48.748;9.656;2023-07-24T12:09:58;12.75;12.75;9.75
46591;PMS6003;32314;48.748;9.656;2023-07-24T12:12:53;9.25;9.25;8.75
46591;PMS6003;32314;48.748;9.656;2023-07-24T12:15:39;10.75;10.75;9.00
46591;PMS6003;32314;48.748;9.656;2023-07-24T12:18:25;9.00;9.00;7.00
46591;PMS6003;32314;48.748;9.656;2023-07-24T12:21:11;9.50;9.50;7.00
46591;PMS6003;32314;48.748;9.656;2023-07-24T12:23:57;11.50;9.75;7.75
46591;PMS6003;32314;48.748;9.656;2023-07-24T12:26:43;10.75;10.75;8.75
46591;PMS6003;32314;48.748;9.656;2023-07-24T12:29:31;10.00;10.00;8.00
46591;PMS6003;32314;48.748;9.656;2023-07-24T12:32:16;8.75;7.75;7.25
46591;PMS6003;32314;48.748;9.656;2023-07-24T12:35:03;8.50;8.50;6.75
46591;PMS6003;32314;48.748;9.656;2023-07-24T12:37:50;10.25;10.25;8.00
46591;PMS6003;32314;48.748;9.656;2023-07-24T12:40:47;11.00;9.25;7.25
46591;PMS6003;32314;48.748;9.656;2023-07-24T12:43:33;8.00;8.00;6.75
46591;PMS6003;32314;48.748;9.656;2023-07-24T12:46:19;9.50;8.00;7.00
46591;PMS6003;32314;48.748;9.656;2023-07-24T12:49:05;11.00;11.00;7.50
46591;PMS6003;32314;48.748;9.656;2023-07-24T12:51:51;8.25;8.25;6.25
46591;PMS6003;32314;48.748;9.656;2023-07-24T12:54:37;8.00;7.25;6.00
46591;PMS6003;32314;48.748;9.656;2023-07-24T12:57:23;9.50;7.25;6.25
46591;PMS6003;32314;48.748;9.656;2023-07-24T13:00:09;8.75;6.75;6.75
46591;PMS6003;32314;48.748;9.656;2023-07-24T13:02:55;7.50;6.50;4.25
46591;PMS6003;32314;48.748;9.656;2023-07-24T13:05:41;7.75;6.00;5.00
46591;PMS6003;32314;48.748;9.656;2023-07-24T13:08:27;6.00;6.00;4.25
46591;PMS6003;32314;48.748;9.656;2023-07-24T13:11:13;5.50;5.50;5.00
46591;PMS6003;32314;48.748;9.656;2023-07-24T13:13:59;7.50;6.00;5.50
46591;PMS6003;32314;48.748;9.656;2023-07-24T13:16:44;6.50;6.50;5.50
46591;PMS6003;32314;48.748;9.656;2023-07-24T13:19:30;6.00;6.00;4.25
46591;PMS6003;32314;48.748;9.656;2023-07-24T13:22:16;6.25;6.25;5.25
46591;PMS6003;32314;48.748;9.656;2023-07-24T13:25:02;7.50;5.75;4.25
46591;PMS6003;32314;48.748;9.656;2023-07-24T13:27:48;6.00;6.00;5.00
46591;PMS6003;32314;48.748;9.656;2023-07-24T13:30:34;5.00;5.00;4.00
46591;PMS6003;32314;48.748;9.656;2023-07-24T13:33:20;6.50;6.00;4.75
46591;PMS6003;32314;48.748;9.656;2023-07-24T13:36:07;7.25;5.25;4.00
46591;PMS6003;32314;48.748;9.656;2023-07-24T13:38:53;5.00;5.00;3.75
46591;PMS6003;32314;48.748;9.656;2023-07-24T13:41:39;6.00;6.00;6.00
46591;PMS6003;32314;48.748;9.656;2023-07-24T13:44:25;5.75;5.75;5.00
46591;PMS6003;32314;48.748;9.656;2023-07-24T13:47:11;5.75;5.75;4.00
46591;PMS6003;32314;48.748;9.656;2023-07-24T13:49:57;5.75;5.75;4.50
46591;PMS6003;32314;48.748;9.656;2023-07-24T13:52:44;5.75;5.75;4.00
46591;PMS6003;32314;48.748;9.656;2023-07-24T13:55:29;5.00;5.00;4.00
46591;PMS6003;32314;48.748;9.656;2023-07-24T13:58:15;6.25;6.25;5.00
46591;PMS6003;32314;48.748;9.656;2023-07-24T14:01:01;5.00;5.00;5.00
46591;PMS6003;32314;48.748;9.656;2023-07-24T14:03:47;5.50;5.50;3.75
46591;PMS6003;32314;48.748;9.656;2023-07-24T14:06:33;7.00;7.00;5.00
46591;PMS6003;32314;48.748;9.656;2023-07-24T14:09:19;6.25;4.50;4.25
46591;PMS6003;32314;48.748;9.656;2023-07-24T14:12:05;3.00;2.00;1.50
46591;PMS6003;32314;48.748;9.656;2023-07-24T14:14:51;3.25;2.75;2.75
46591;PMS6003;32314;48.748;9.656;2023-07-24T14:17:37;6.50;5.25;4.50
46591;PMS6003;32314;48.748;9.656;2023-07-24T14:20:22;5.75;5.75;4.75
46591;PMS6003;32314;48.748;9.656;2023-07-24T14:23:08;6.00;6.00;4.00
46591;PMS6003;32314;48.748;9.656;2023-07-24T14:25:54;4.00;4.00;4.00
46591;PMS6003;32314;48.748;9.656;2023-07-24T14:28:40;4.25;3.50;3.00
46591;PMS6003;32314;48.748;9.656;2023-07-24T14:31:26;6.75;6.75;4.00
46591;PMS6003;32314;48.748;9.656;2023-07-24T14:34:12;4.75;4.00;3.00
46591;PMS6003;32314;48.748;9.656;2023-07-24T14:36:58;4.75;3.25;3.00
46591;PMS6003;32314;48.748;9.656;2023-07-24T14:39:44;3.25;2.75;2.25
46591;PMS6003;32314;48.748;9.656;2023-07-24T14:42:30;3.00;3.00;3.00
46591;PMS6003;32314;48.748;9.656;2023-07-24T14:45:15;5.50;5.50;4.00
46591;PMS6003;32314;48.748;9.656;2023-07-24T14:48:01;4.00;4.00;3.00
46591;PMS6003;32314;48.748;9.656;2023-07-24T14:50:50;3.25;3.25;2.75
46591;PMS6003;32314;48.748;9.656;2023-07-24T14:53:36;3.00;3.00;3.00
46591;PMS6003;32314;48.748;9.656;2023-07-24T14:56:24;3.50;3.50;3.25
46591;PMS6003;32314;48.748;9.656;2023-07-24T14:59:10;2.50;2.50;2.00
46591;PMS6003;32314;48.748;9.656;2023-07-24T15:01:56;4.50;4.50;4.00
46591;PMS6003;32314;48.748;9.656;2023-07-24T15:04:42;3.75;3.75;3.25
46591;PMS6003;32314;48.748;9.656;2023-07-24T15:07:28;3.50;3.50;2.25
46591;PMS6003;32314;48.748;9.656;2023-07-24T15:10:14;5.75;5.75;4.50
46591;PMS6003;32314;48.748;9.656;2023-07-24T15:13:00;2.50;2.50;2.25
46591;PMS6003;32314;48.748;9.656;2023-07-24T15:15:46;4.75;3.25;3.00
46591;PMS6003;32314;48.748;9.656;2023-07-24T15:18:32;3.00;3.00;3.00
46591;PMS6003;32314;48.748;9.656;2023-07-24T15:21:20;3.33;3.33;3.00
46591;PMS6003;32314;48.748;9.656;2023-07-24T15:24:06;4.00;4.00;3.00
46591;PMS6003;32314;48.748;9.656;2023-07-24T15:26:52;3.50;3.50;3.00
46591;PMS6003;32314;48.748;9.656;2023-07-24T15:29:38;0.75;0.75;0.00
46591;PMS6003;32314;48.748;9.656;2023-07-24T15:32:23;4.25;3.50;3.00
46591;PMS6003;32314;48.748;9.656;2023-07-24T15:35:09;7.50;5.00;4.00
46591;PMS6003;32314;48.748;9.656;2023-07-24T15:37:55;4.00;4.00;3.00
46591;PMS6003;32314;48.748;9.656;2023-07-24T15:40:41;6.00;6.00;5.75
46591;PMS6003;32314;48.748;9.656;2023-07-24T15:43:27;5.00;5.00;4.25
46591;PMS6003;32314;48.748;9.656;2023-07-24T15:46:13;4.00;4.00;3.50
46591;PMS6003;32314;48.748;9.656;2023-07-24T15:48:59;4.50;4.50;3.25
46591;PMS6003;32314;48.748;9.656;2023-07-24T15:51:45;5.50;5.50;5.00
46591;PMS6003;32314;48.748;9.656;2023-07-24T15:54:31;4.00;4.00;4.00
46591;PMS6003;32314;48.748;9.656;2023-07-24T15:57:17;6.00;6.00;4.75
46591;PMS6003;32314;48.748;9.656;2023-07-24T16:00:03;5.00;5.00;4.00
46591;PMS6003;32314;48.748;9.656;2023-07-24T16:02:57;4.25;4.25;3.25
46591;PMS6003;32314;48.748;9.656;2023-07-24T16:05:43;4.75;4.75;3.75
46591;PMS6003;32314;48.748;9.656;2023-07-24T16:08:32;5.25;4.00;3.00
46591;PMS6003;32314;48.748;9.656;2023-07-24T16:11:18;5.00;5.00;4.00
46591;PMS6003;32314;48.748;9.656;2023-07-24T16:14:04;5.25;5.25;4.25
46591;PMS6003;32314;48.748;9.656;2023-07-24T16:16:50;4.25;4.25;3.00
46591;PMS6003;32314;48.748;9.656;2023-07-24T16:19:36;6.50;5.50;4.50
46591;PMS6003;32314;48.748;9.656;2023-07-24T16:22:24;7.00;7.00;6.00
46591;PMS6003;32314;48.748;9.656;2023-07-24T16:25:10;5.50;5.50;5.00
46591;PMS6003;32314;48.748;9.656;2023-07-24T16:27:55;5.50;5.00;4.00
46591;PMS6003;32314;48.748;9.656;2023-07-24T16:30:41;5.00;5.00;4.25
46591;PMS6003;32314;48.748;9.656;2023-07-24T16:33:27;5.00;5.00;4.00
46591;PMS6003;32314;48.748;9.656;2023-07-24T16:36:13;4.00;4.00;3.00
46591;PMS6003;32314;48.748;9.656;2023-07-24T16:38:59;3.75;3.75;3.75
46591;PMS6003;32314;48.748;9.656;2023-07-24T16:41:45;2.25;2.25;2.00
46591;PMS6003;32314;48.748;9.656;2023-07-24T16:44:31;5.25;5.25;4.00
46591;PMS6003;32314;48.748;9.656;2023-07-24T16:47:19;2.75;2.75;2.25
46591;PMS6003;32314;48.748;9.656;2023-07-24T16:50:06;4.00;4.00;4.00
46591;PMS6003;32314;48.748;9.656;2023-07-24T16:52:52;6.00;4.75;3.75
46591;PMS6003;32314;48.748;9.656;2023-07-24T16:55:38;4.25;4.25;4.00
46591;PMS6003;32314;48.748;9.656;2023-07-24T16:58:24;2.50;2.50;2.00
46591;PMS6003;32314;48.748;9.656;2023-07-24T17:01:10;6.25;4.25;3.50
46591;PMS6003;32314;48.748;9.656;2023-07-24T17:03:56;4.50;4.50;4.50
46591;PMS6003;32314;48.748;9.656;2023-07-24T17:06:42;4.75;4.75;4.00
46591;PMS6003;32314;48.748;9.656;2023-07-24T17:09:30;5.25;4.50;4.00
46591;PMS6003;32314;48.748;9.656;2023-07-24T17:12:16;4.75;4.75;3.25
46591;PMS6003;32314;48.748;9.656;2023-07-24T17:15:02;4.75;4.00;3.25
46591;PMS6003;32314;48.748;9.656;2023-07-24T17:17:48;3.75;3.75;3.00